Time;durP1;ratioP1;P1;durP2;ratioP2;P2;SDS_P1;SDS_P2;PMS_P1;PMS_P2;Temp;Humidity;BMP_temperature;BMP_pressure;BME280_temperature;BME280_humidity;BME280_pressure;Samples;Min_cycle;Max_cycle;Signal;HPM_P1;HPM_P2
2022/12/22 03:26:42;;;;;;;1.93;1.30;;;;;;;10.99;99.57;97477.13;4155823;28;20629;-89
2022/12/22 03:28:45;;;;;;;2.80;1.10;;;;;;;10.97;100.00;97462.53;4144689;28;20638;-89
2022/12/22 03:30:56;;;;;;;4.80;1.17;;;;;;;11.00;98.70;97463.09;4158044;28;21053;-90
2022/12/22 03:33:01;;;;;;;1.77;0.97;;;;;;;10.99;98.94;97460.63;4136973;28;20662;-89
2022/12/22 03:35:05;;;;;;;2.40;1.03;;;;;;;11.03;100.00;97456.81;4155507;28;21073;-90
2022/12/22 03:37:08;;;;;;;1.73;0.90;;;;;;;11.06;99.60;97446.16;4167967;28;20664;-89
2022/12/22 03:39:11;;;;;;;1.73;1.00;;;;;;;11.07;99.50;97440.81;4138388;28;21303;-90
2022/12/22 03:46:34;;;;;;;1.60;1.00;;;;;;;11.13;100.00;97437.69;4138159;28;20627;-89
2022/12/22 03:48:38;;;;;;;1.70;0.90;;;;;;;11.15;99.69;97430.56;4137514;28;20665;-91
2022/12/22 03:50:43;;;;;;;2.00;1.50;;;;;;;11.19;99.71;97431.16;4149659;28;20708;-90
2022/12/22 03:52:46;;;;;;;1.20;0.80;;;;;;;11.23;99.55;97433.41;4179964;28;20639;-90
2022/12/22 03:54:50;;;;;;;1.50;0.93;;;;;;;11.24;99.26;97422.00;4150450;28;20766;-91
2022/12/22 03:56:53;;;;;;;2.20;1.13;;;;;;;11.25;98.34;97415.81;4154150;28;21249;-92
2022/12/22 03:58:56;;;;;;;1.43;0.77;;;;;;;11.26;98.76;97416.66;4189751;28;20625;-90
2022/12/22 04:01:07;;;;;;;1.53;0.90;;;;;;;11.25;99.13;97418.44;4171119;28;21102;-90
2022/12/22 04:03:10;;;;;;;2.47;1.00;;;;;;;11.28;96.96;97421.63;4154756;28;21220;-90
2022/12/22 04:05:15;;;;;;;1.33;1.03;;;;;;;11.31;98.69;97423.16;4156331;28;20641;-90
2022/12/22 04:07:18;;;;;;;1.40;0.93;;;;;;;11.28;97.34;97426.84;4157277;28;21044;-90
2022/12/22 04:09:23;;;;;;;1.50;0.90;;;;;;;11.33;98.24;97429.06;4183846;28;20781;-91
2022/12/22 04:13:46;;;;;;;1.93;0.87;;;;;;;11.28;98.48;97434.66;4152908;28;20700;-89
2022/12/22 04:15:49;;;;;;;1.73;1.00;;;;;;;11.27;96.76;97435.66;4143778;28;20647;-89
2022/12/22 04:17:53;;;;;;;1.40;0.60;;;;;;;11.24;98.18;97435.03;4142928;28;20684;-90
2022/12/22 04:19:56;;;;;;;1.50;0.90;;;;;;;11.25;99.04;97439.31;4141447;28;20634;-90
2022/12/22 04:22:33;;;;;;;1.93;1.00;;;;;;;11.25;98.12;97426.28;4173422;28;21214;-89
2022/12/22 04:24:36;;;;;;;1.37;0.90;;;;;;;11.26;98.13;97434.91;4164655;28;21030;-90
2022/12/22 04:26:39;;;;;;;2.80;1.10;;;;;;;11.25;100.00;97433.28;4151680;28;20630;-90
2022/12/22 04:28:52;;;;;;;2.70;0.97;;;;;;;11.26;99.43;97427.09;4143853;28;20681;-89
2022/12/22 04:30:55;;;;;;;3.00;1.10;;;;;;;11.24;98.46;97424.59;4156223;28;20750;-90
2022/12/22 04:32:58;;;;;;;1.87;0.97;;;;;;;11.25;99.31;97420.22;4188772;28;20619;-89
2022/12/22 04:35:01;;;;;;;6.10;1.27;;;;;;;11.24;99.42;97414.16;4156479;28;20689;-90
2022/12/22 04:37:04;;;;;;;2.40;1.03;;;;;;;11.26;98.34;97416.66;4142179;28;20689;-90
2022/12/22 04:39:19;;;;;;;3.10;1.00;;;;;;;11.28;99.55;97413.78;4170294;28;20667;-90
2022/12/22 04:41:22;;;;;;;2.03;1.17;;;;;;;11.27;99.81;97406.94;4191775;28;21043;-91
2022/12/22 04:43:25;;;;;;;2.37;1.00;;;;;;;11.27;98.76;97414.75;4141369;28;21104;-90
2022/12/22 04:45:29;;;;;;;2.43;0.93;;;;;;;11.27;98.75;97412.16;4153113;28;20857;-90
2022/12/22 04:47:32;;;;;;;2.83;1.00;;;;;;;11.26;98.75;97409.66;4184620;28;20690;-89
2022/12/22 04:49:35;;;;;;;2.00;1.07;;;;;;;11.24;99.12;97414.16;4157914;28;20655;-90
2022/12/22 04:51:38;;;;;;;2.43;1.20;;;;;;;11.20;100.00;97418.00;4156234;28;20641;-90
2022/12/22 04:53:41;;;;;;;4.13;1.20;;;;;;;11.15;100.00;97407.06;4155764;28;20625;-90
2022/12/22 04:55:46;;;;;;;2.73;1.20;;;;;;;11.12;100.00;97412.53;4170831;28;20645;-91
2022/12/22 04:58:30;;;;;;;7.73;1.70;;;;;;;11.12;100.00;97409.94;4189630;28;20661;-90
2022/12/22 05:00:33;;;;;;;2.17;1.23;;;;;;;11.11;100.00;97404.84;4160019;28;20645;-90
2022/12/22 05:02:36;;;;;;;1.73;1.00;;;;;;;11.08;100.00;97407.69;4156742;28;21199;-90
2022/12/22 05:04:39;;;;;;;1.97;1.30;;;;;;;11.06;100.00;97407.81;4163298;28;21208;-91
2022/12/22 05:06:42;;;;;;;2.67;1.17;;;;;;;11.05;100.00;97407.94;4174389;28;20740;-90
2022/12/22 05:08:46;;;;;;;3.27;1.00;;;;;;;11.02;100.00;97400.38;4143365;28;20757;-90
2022/12/22 05:10:50;;;;;;;2.00;1.10;;;;;;;11.00;100.00;97397.06;4171958;28;22619;-89
2022/12/22 05:12:56;;;;;;;2.33;0.90;;;;;;;11.00;100.00;97395.28;4173107;28;20713;-89
2022/12/22 05:14:59;;;;;;;2.80;1.10;;;;;;;11.03;100.00;97399.44;4160890;28;20721;-89
2022/12/22 05:17:21;;;;;;;2.17;1.33;;;;;;;11.03;100.00;97389.81;4154828;28;20653;-89
2022/12/22 05:19:24;;;;;;;1.57;1.10;;;;;;;10.97;100.00;97389.47;4139224;28;20627;-90
2022/12/22 05:21:32;;;;;;;3.40;1.00;;;;;;;10.97;100.00;97387.69;4166599;28;20707;-89
2022/12/22 05:23:45;;;;;;;3.13;1.73;;;;;;;11.02;100.00;97389.94;4143874;28;22214;-89
2022/12/22 05:25:49;;;;;;;3.50;1.07;;;;;;;11.00;100.00;97387.44;4187423;28;20630;-90
2022/12/22 05:27:53;;;;;;;3.87;0.90;;;;;;;11.03;100.00;97378.56;4156354;28;20736;-89
2022/12/22 05:29:56;;;;;;;3.17;1.23;;;;;;;11.00;100.00;97384.84;4160214;28;20637;-89
2022/12/22 05:32:23;;;;;;;2.80;1.50;;;;;;;11.06;100.00;97378.31;4155791;28;21260;-89
2022/12/22 05:34:26;;;;;;;2.57;1.20;;;;;;;11.06;100.00;97375.69;4155371;28;20644;-90
2022/12/22 05:36:29;;;;;;;2.27;0.97;;;;;;;11.05;100.00;97385.31;4162566;28;20717;-90
2022/12/22 05:38:32;;;;;;;3.60;1.10;;;;;;;11.05;100.00;97384.47;4175804;28;20735;-90
2022/12/22 05:40:36;;;;;;;2.13;1.00;;;;;;;11.10;100.00;97384.94;4177000;28;20635;-90
2022/12/22 05:42:40;;;;;;;4.40;1.07;;;;;;;11.11;100.00;97390.03;4188572;28;20667;-90
2022/12/22 05:44:44;;;;;;;3.73;1.00;;;;;;;11.10;100.00;97383.16;4159373;28;20641;-92
2022/12/22 05:46:50;;;;;;;2.03;1.27;;;;;;;11.14;100.00;97381.09;4157902;28;20997;-91
2022/12/22 05:48:53;;;;;;;2.60;1.33;;;;;;;11.15;100.00;97385.38;4141668;28;20712;-92
2022/12/22 05:50:56;;;;;;;2.57;1.17;;;;;;;11.13;100.00;97385.50;4173148;28;21226;-90
2022/12/22 05:52:59;;;;;;;2.73;1.23;;;;;;;11.13;100.00;97380.28;4142443;28;20637;-91
2022/12/22 05:55:03;;;;;;;4.87;1.40;;;;;;;11.15;100.00;97388.00;4154912;28;20638;-90
2022/12/22 05:57:06;;;;;;;1.73;1.07;;;;;;;11.16;100.00;97384.44;4143766;28;20641;-91
2022/12/22 05:59:11;;;;;;;2.77;0.90;;;;;;;11.15;100.00;97372.34;4156077;28;20691;-90
2022/12/22 06:01:14;;;;;;;2.43;1.20;;;;;;;11.16;100.00;97380.03;4150446;28;20626;-89
2022/12/22 06:03:17;;;;;;;3.93;1.73;;;;;;;11.17;100.00;97376.50;4158506;28;21215;-91
2022/12/22 06:05:21;;;;;;;5.13;1.47;;;;;;;11.21;99.41;97364.00;4144944;28;20675;-93
2022/12/22 06:07:24;;;;;;;2.97;1.23;;;;;;;11.22;100.00;97373.50;4148983;28;21749;-91
2022/12/22 06:09:27;;;;;;;5.77;1.20;;;;;;;11.26;99.69;97360.06;4168449;28;20668;-92
2022/12/22 06:11:30;;;;;;;4.00;1.40;;;;;;;11.30;100.00;97364.88;4155576;28;20633;-90
2022/12/22 06:13:33;;;;;;;2.40;1.33;;;;;;;11.28;99.32;97364.19;4154111;28;20649;-92
2022/12/22 06:15:38;;;;;;;5.50;1.50;;;;;;;11.27;100.00;97366.94;4151948;28;20626;-91
2022/12/22 06:17:41;;;;;;;3.53;1.30;;;;;;;11.26;99.47;97373.13;4142587;28;20647;-92
2022/12/22 06:20:19;;;;;;;3.53;1.10;;;;;;;11.26;99.51;97362.69;4157619;28;20683;-90
2022/12/22 06:22:22;;;;;;;2.03;1.30;;;;;;;11.25;99.75;97363.63;4156196;28;20691;-92
2022/12/22 06:24:25;;;;;;;4.07;1.40;;;;;;;11.24;100.00;97369.78;4156879;28;20629;-90
2022/12/22 06:26:28;;;;;;;3.47;1.23;;;;;;;11.21;98.99;97364.81;4170281;28;20636;-92
2022/12/22 06:28:31;;;;;;;2.23;1.10;;;;;;;11.20;100.00;97368.41;4157426;28;20626;-90
2022/12/22 06:30:34;;;;;;;6.57;1.60;;;;;;;11.19;100.00;97371.13;4141542;28;20732;-89
2022/12/22 06:32:41;;;;;;;4.67;1.27;;;;;;;11.22;99.51;97365.66;4156827;28;20763;-90
2022/12/22 06:34:44;;;;;;;3.80;1.17;;;;;;;11.21;99.30;97361.41;4190176;28;21158;-91
2022/12/22 06:36:48;;;;;;;5.77;1.60;;;;;;;11.17;99.05;97365.19;4170917;28;20640;-91
2022/12/22 06:38:51;;;;;;;5.87;1.47;;;;;;;11.16;99.18;97374.81;4169317;28;21021;-92
2022/12/22 06:40:54;;;;;;;2.70;1.03;;;;;;;11.15;100.00;97359.28;4157970;28;20648;-91
2022/12/22 06:43:08;;;;;;;3.00;1.40;;;;;;;11.14;99.01;97365.44;4156462;28;20637;-92
2022/12/22 06:45:12;;;;;;;6.27;1.63;;;;;;;11.13;98.89;97364.63;4184849;28;20639;-91
2022/12/22 06:47:16;;;;;;;7.47;1.67;;;;;;;11.15;97.86;97367.94;4164192;28;21058;-91
2022/12/22 06:49:22;;;;;;;4.10;1.47;;;;;;;11.16;98.64;97369.59;4154753;28;20728;-92
2022/12/22 06:51:25;;;;;;;5.37;1.53;;;;;;;11.19;98.61;97368.53;4159181;28;20665;-90
2022/12/22 06:53:28;;;;;;;5.67;1.70;;;;;;;11.23;98.78;97381.19;4160724;28;20650;-91
2022/12/22 06:55:31;;;;;;;6.10;1.57;;;;;;;11.24;99.64;97374.19;4159466;28;20649;-90
2022/12/22 06:57:34;;;;;;;7.27;1.77;;;;;;;11.20;97.98;97376.22;4146123;28;20745;-89
2022/12/22 06:59:37;;;;;;;11.50;4.07;;;;;;;11.24;98.92;97382.03;4154990;28;20979;-88
2022/12/22 07:01:41;;;;;;;8.57;1.53;;;;;;;11.24;97.76;97376.81;4186654;28;20628;-89
2022/12/22 07:03:44;;;;;;;3.70;1.50;;;;;;;11.21;100.00;97372.66;4157813;28;21215;-89
2022/12/22 07:05:49;;;;;;;4.43;1.63;;;;;;;11.21;99.83;97374.44;4173326;28;21141;-90
2022/12/22 07:07:52;;;;;;;4.80;1.90;;;;;;;11.23;99.04;97369.91;4154252;28;20665;-88
2022/12/22 07:09:55;;;;;;;4.70;1.53;;;;;;;11.24;97.27;97382.84;4139988;28;21074;-91
2022/12/22 07:11:59;;;;;;;6.83;1.90;;;;;;;11.25;97.01;97384.50;4170609;28;20682;-89
2022/12/22 07:14:02;;;;;;;6.90;2.23;;;;;;;11.26;98.21;97388.78;4169064;28;20633;-92
2022/12/22 07:16:07;;;;;;;6.40;1.97;;;;;;;11.26;97.14;97386.16;4142087;28;21260;-92
2022/12/22 07:18:10;;;;;;;6.10;1.93;;;;;;;11.29;95.93;97396.38;4161772;28;20688;-93
2022/12/22 07:20:14;;;;;;;8.10;1.70;;;;;;;11.30;96.28;97387.56;4143754;28;20634;-92
2022/12/22 07:22:19;;;;;;;6.47;2.40;;;;;;;11.30;94.89;97398.81;4143888;28;20660;-90
2022/12/22 07:24:31;;;;;;;8.27;1.67;;;;;;;11.33;95.53;97397.75;4164050;28;20743;-95
2022/12/22 07:26:35;;;;;;;4.90;2.00;;;;;;;11.34;95.87;97407.25;4140796;28;20623;-90
2022/12/22 07:28:39;;;;;;;6.10;2.37;;;;;;;11.34;95.59;97409.84;4139293;28;20645;-89
2022/12/22 07:30:43;;;;;;;7.30;1.93;;;;;;;11.36;95.20;97397.50;4154665;28;20634;-90
2022/12/22 07:32:46;;;;;;;5.07;1.53;;;;;;;11.36;96.28;97397.50;4154292;28;20645;-88
2022/12/22 07:34:49;;;;;;;9.57;2.10;;;;;;;11.30;95.62;97395.38;4169852;28;21217;-88
2022/12/22 07:36:53;;;;;;;6.40;2.13;;;;;;;11.29;95.06;97398.97;4157061;28;20641;-89
2022/12/22 07:38:57;;;;;;;5.10;1.70;;;;;;;11.29;94.67;97391.13;4152653;28;21295;-95
2022/12/22 07:41:01;;;;;;;5.03;1.73;;;;;;;11.28;94.20;97400.72;4139447;28;21236;-95
2022/12/22 07:43:07;;;;;;;8.03;1.43;;;;;;;11.27;94.24;97397.44;4150647;28;20693;-92
2022/12/22 07:45:10;;;;;;;5.47;1.80;;;;;;;11.28;94.11;97410.34;4135786;28;21209;-93
2022/12/22 07:47:17;;;;;;;6.40;2.30;;;;;;;11.30;93.83;97403.22;4172784;28;20643;-94
2022/12/22 07:51:42;;;;;;;6.70;1.70;;;;;;;11.43;93.41;97406.50;4191524;28;21021;-93
2022/12/22 07:53:45;;;;;;;6.30;1.97;;;;;;;11.43;94.12;97414.31;4155650;28;20676;-94
2022/12/22 07:55:49;;;;;;;5.90;1.50;;;;;;;11.44;92.95;97405.50;4142168;28;20692;-92
2022/12/22 07:57:53;;;;;;;4.63;1.77;;;;;;;11.47;93.36;97405.28;4171875;28;20666;-95
2022/12/22 07:59:56;;;;;;;5.87;1.40;;;;;;;11.45;93.60;97409.78;4145186;28;20659;-95
2022/12/22 08:02:00;;;;;;;8.30;2.20;;;;;;;11.48;92.83;97422.63;4174818;28;20628;-92
2022/12/22 08:04:24;;;;;;;6.13;1.60;;;;;;;11.49;93.40;97408.63;4148504;28;20639;-88
2022/12/22 08:06:27;;;;;;;5.47;2.27;;;;;;;11.52;93.70;97413.59;4154210;28;20633;-94
2022/12/22 08:08:30;;;;;;;5.37;2.87;;;;;;;11.51;91.47;97419.75;4172474;28;20668;-91
2022/12/22 08:10:34;;;;;;;5.53;1.80;;;;;;;11.55;91.18;97419.38;4155068;28;20620;-94
2022/12/22 08:12:47;;;;;;;6.53;1.83;;;;;;;11.56;92.03;97412.38;4180980;28;21107;-91
2022/12/22 08:14:50;;;;;;;4.10;1.60;;;;;;;11.55;91.19;97408.94;4186317;28;20673;-92
2022/12/22 08:16:53;;;;;;;4.77;1.40;;;;;;;11.52;90.66;97409.19;4138047;28;20730;-93
2022/12/22 08:18:56;;;;;;;7.57;2.10;;;;;;;11.48;91.13;97406.97;4176823;28;20656;-94
2022/12/22 08:21:00;;;;;;;6.37;1.90;;;;;;;11.49;91.15;97395.56;4174574;28;20722;-93
2022/12/22 08:23:03;;;;;;;6.10;1.73;;;;;;;11.50;92.12;97405.03;4156246;28;20687;-91
2022/12/22 08:25:07;;;;;;;6.87;1.60;;;;;;;11.55;90.87;97408.13;4143378;28;20638;-93
2022/12/22 08:27:24;;;;;;;3.60;1.40;;;;;;;11.77;92.18;97414.00;4153584;28;20635;-91
2022/12/22 08:29:32;;;;;;;8.30;2.03;;;;;;;12.02;90.02;97411.81;4143940;28;20720;-94
2022/12/22 08:31:35;;;;;;;4.57;1.67;;;;;;;12.04;89.12;97415.16;4167460;28;20640;-90
2022/12/22 08:33:38;;;;;;;4.70;1.77;;;;;;;11.95;89.41;97417.69;4156999;28;20634;-90
2022/12/22 08:35:42;;;;;;;5.27;1.73;;;;;;;11.90;90.69;97419.88;4185423;28;21224;-89
2022/12/22 08:37:45;;;;;;;6.83;1.53;;;;;;;11.98;90.14;97413.06;4139892;28;20635;-87
2022/12/22 08:39:50;;;;;;;3.00;1.33;;;;;;;12.02;90.26;97418.84;4184778;28;20679;-89
2022/12/22 08:42:07;;;;;;;7.57;1.67;;;;;;;11.92;91.34;97407.50;4170108;28;21024;-90
2022/12/22 08:44:10;;;;;;;5.77;1.97;;;;;;;11.90;90.87;97409.44;4137943;28;20677;-94
2022/12/22 08:46:14;;;;;;;5.70;1.43;;;;;;;11.94;91.40;97414.25;4152465;28;20649;-91
2022/12/22 08:48:18;;;;;;;5.40;1.40;;;;;;;11.90;90.17;97399.78;4152158;28;20741;-91
2022/12/22 08:50:21;;;;;;;6.73;3.10;;;;;;;11.87;91.34;97397.44;4154540;28;20641;-93
2022/12/22 08:52:24;;;;;;;5.73;2.80;;;;;;;11.87;91.45;97405.28;4153559;28;20664;-91
2022/12/22 08:54:27;;;;;;;2.60;1.10;;;;;;;11.86;91.65;97402.78;4146111;28;21119;-94
2022/12/22 08:56:31;;;;;;;5.87;1.37;;;;;;;11.83;91.80;97398.66;4145247;28;21074;-92
2022/12/22 08:58:34;;;;;;;4.77;1.77;;;;;;;11.80;91.62;97401.53;4171833;28;20841;-92
2022/12/22 09:00:37;;;;;;;4.07;1.30;;;;;;;11.78;91.56;97392.16;4151636;28;20661;-91
2022/12/22 09:02:47;;;;;;;4.23;1.33;;;;;;;11.76;91.08;97400.13;4167783;28;20624;-92
2022/12/22 09:04:51;;;;;;;4.13;1.43;;;;;;;11.75;90.18;97395.84;4153292;28;21143;-93
2022/12/22 09:06:54;;;;;;;5.43;1.93;;;;;;;11.72;92.81;97402.31;4159640;28;20768;-88
2022/12/22 09:08:58;;;;;;;7.10;1.43;;;;;;;11.71;92.53;97391.00;4154241;28;21053;-95
2022/12/22 09:11:03;;;;;;;4.40;1.40;;;;;;;11.72;92.87;97391.88;4167873;28;21258;-91
2022/12/22 09:13:06;;;;;;;6.83;2.23;;;;;;;11.74;92.56;97390.75;4148082;28;20740;-90
2022/12/22 09:15:09;;;;;;;8.30;2.30;;;;;;;11.77;92.14;97403.56;4164299;28;20693;-87
2022/12/22 09:17:12;;;;;;;5.37;1.83;;;;;;;11.75;91.20;97394.22;4141931;28;20623;-91
2022/12/22 09:19:17;;;;;;;8.97;1.77;;;;;;;11.71;92.67;97400.66;4157810;28;20732;-91
2022/12/22 09:21:20;;;;;;;3.70;2.20;;;;;;;11.71;90.90;97398.03;4140706;28;21554;-91
2022/12/22 09:23:23;;;;;;;3.83;1.53;;;;;;;11.73;91.11;97404.78;4153933;28;20653;-91
2022/12/22 09:25:28;;;;;;;6.37;2.23;;;;;;;11.78;92.01;97394.78;4155635;28;20637;-88
2022/12/22 09:27:31;;;;;;;6.30;1.40;;;;;;;11.78;91.55;97400.81;4127491;28;20972;-89
2022/12/22 09:29:34;;;;;;;5.30;1.73;;;;;;;11.74;91.30;97403.81;4154521;28;20638;-90
2022/12/22 09:31:40;;;;;;;5.30;2.20;;;;;;;11.75;91.71;97401.06;4173537;28;21054;-89
2022/12/22 09:33:43;;;;;;;5.47;1.70;;;;;;;11.75;91.41;97401.06;4149310;28;20625;-89
2022/12/22 09:35:48;;;;;;;5.07;1.70;;;;;;;11.73;91.69;97407.41;4172001;28;20641;-89
2022/12/22 09:37:51;;;;;;;8.37;1.77;;;;;;;11.72;92.85;97410.97;4164013;28;20629;-87
2022/12/22 09:39:55;;;;;;;7.97;2.00;;;;;;;11.68;95.29;97420.03;4157407;28;20905;-91
2022/12/22 09:41:58;;;;;;;4.07;1.70;;;;;;;11.56;95.06;97426.28;4188479;28;20645;-94
2022/12/22 09:44:24;;;;;;;8.63;2.67;;;;;;;11.45;96.70;97418.44;4168025;28;21075;-90
2022/12/22 09:46:29;;;;;;;8.47;2.40;;;;;;;11.35;96.94;97432.38;4154426;28;20636;-91
2022/12/22 09:48:36;;;;;;;8.00;1.80;;;;;;;11.33;96.95;97429.06;4155925;28;20633;-92
2022/12/22 09:50:40;;;;;;;11.63;2.20;;;;;;;11.28;96.24;97428.63;4151845;28;20647;-89
2022/12/22 09:52:48;;;;;;;5.43;3.67;;;;;;;11.29;97.41;97427.69;4135113;28;20634;-90
2022/12/22 09:54:51;;;;;;;3.43;1.93;;;;;;;11.23;97.28;97428.19;4149833;28;21812;-91
2022/12/22 09:56:54;;;;;;;5.70;1.73;;;;;;;11.23;96.98;97433.41;4149704;28;21553;-88
2022/12/22 09:58:58;;;;;;;7.47;2.00;;;;;;;11.20;97.44;97423.22;4138864;28;20634;-92
2022/12/22 10:01:08;;;;;;;7.63;1.80;;;;;;;11.19;98.63;97432.00;4169778;28;20664;-92
2022/12/22 10:03:16;;;;;;;6.23;1.70;;;;;;;11.23;98.42;97440.38;4156645;28;20725;-91
2022/12/22 10:05:27;;;;;;;9.57;1.90;;;;;;;11.24;99.86;97439.44;4153850;28;20647;-90
2022/12/22 10:07:32;;;;;;;7.33;2.30;;;;;;;11.20;98.66;97435.41;4172539;28;21300;-91
2022/12/22 10:09:37;;;;;;;5.37;1.67;;;;;;;11.19;98.34;97452.88;4136082;28;20704;-93
2022/12/22 10:12:15;;;;;;;9.10;2.37;;;;;;;11.16;99.20;97437.44;4131944;28;20634;-92
2022/12/22 10:14:18;;;;;;;4.73;1.80;;;;;;;11.19;100.00;97441.59;4135489;28;20980;-91
2022/12/22 10:16:23;;;;;;;8.23;1.70;;;;;;;11.19;99.91;97442.44;4133741;28;20646;-91
2022/12/22 10:18:28;;;;;;;5.80;1.60;;;;;;;11.13;100.00;97447.31;4131320;28;20642;-92
2022/12/22 10:20:31;;;;;;;4.93;1.50;;;;;;;11.07;100.00;97432.97;4132534;28;21069;-91
2022/12/22 10:22:47;;;;;;;4.27;1.70;;;;;;;11.01;100.00;97441.28;4151504;28;20637;-91
2022/12/22 10:24:52;;;;;;;6.37;1.80;;;;;;;10.99;100.00;97439.75;4169025;28;20654;-91
2022/12/22 10:26:57;;;;;;;11.40;2.33;;;;;;;10.94;100.00;97442.72;4154110;28;20645;-91
2022/12/22 10:29:05;;;;;;;7.27;2.37;;;;;;;10.97;100.00;97447.69;4151636;28;20702;-91
2022/12/22 10:31:20;;;;;;;8.70;3.20;;;;;;;11.02;100.00;97449.94;4168248;28;21271;-91
2022/12/22 10:33:24;;;;;;;4.63;2.20;;;;;;;10.99;100.00;97443.22;4150372;28;20630;-89
2022/12/22 10:35:27;;;;;;;6.93;2.07;;;;;;;10.92;100.00;97436.81;4149522;28;20700;-90
2022/12/22 10:37:32;;;;;;;7.87;1.73;;;;;;;10.87;100.00;97436.38;4153465;28;20646;-89
2022/12/22 10:39:37;;;;;;;4.40;1.57;;;;;;;10.81;100.00;97456.91;4136562;28;20726;-91
2022/12/22 10:41:45;;;;;;;6.20;2.10;;;;;;;10.84;100.00;97454.03;4142782;28;20669;-91
2022/12/22 10:43:51;;;;;;;6.40;1.40;;;;;;;10.85;100.00;97447.84;4178484;28;20631;-87
2022/12/22 10:45:56;;;;;;;8.50;1.63;;;;;;;10.75;100.00;97440.88;4139038;28;21212;-91
2022/12/22 10:47:59;;;;;;;11.30;2.30;;;;;;;10.76;100.00;97445.16;4179870;28;20637;-91
2022/12/22 10:50:02;;;;;;;3.60;1.43;;;;;;;10.79;100.00;97442.31;4171211;28;20643;-92
2022/12/22 10:52:14;;;;;;;7.93;2.30;;;;;;;10.81;100.00;97444.69;4151963;28;20695;-91
2022/12/22 10:54:29;;;;;;;6.80;1.77;;;;;;;10.88;100.00;97451.06;4139885;28;21432;-91
2022/12/22 10:56:33;;;;;;;5.30;2.10;;;;;;;10.92;100.00;97449.03;4152599;28;20649;-88
2022/12/22 10:58:49;;;;;;;6.87;1.83;;;;;;;11.01;100.00;97453.53;4151612;28;20648;-87
2022/12/22 11:01:02;;;;;;;6.00;2.00;;;;;;;11.06;100.00;97452.19;4158253;28;20730;-89
2022/12/22 11:03:06;;;;;;;7.90;2.90;;;;;;;11.08;100.00;97458.13;4146049;28;20622;-88
2022/12/22 11:05:11;;;;;;;5.10;3.00;;;;;;;11.11;100.00;97460.50;4142667;28;20673;-89
2022/12/22 11:07:14;;;;;;;3.93;1.23;;;;;;;11.16;100.00;97454.91;4153628;28;20648;-90
2022/12/22 11:09:18;;;;;;;3.50;1.70;;;;;;;11.19;100.00;97458.09;4153878;28;21301;-90
2022/12/22 11:11:39;;;;;;;4.20;1.80;;;;;;;11.19;100.00;97447.66;4151579;28;20725;-92
2022/12/22 11:13:57;;;;;;;6.10;1.20;;;;;;;11.21;100.00;97465.78;4149859;28;20630;-92
2022/12/22 11:16:03;;;;;;;6.50;1.47;;;;;;;11.23;100.00;97462.13;4152401;28;20622;-89
2022/12/22 11:18:28;;;;;;;5.57;1.60;;;;;;;11.27;100.00;97455.66;4155152;28;20716;-89
2022/12/22 11:20:42;;;;;;;3.23;1.10;;;;;;;11.27;100.00;97453.91;4150712;28;20642;-89
2022/12/22 11:22:50;;;;;;;4.10;1.13;;;;;;;11.32;100.00;97458.72;4155472;28;20637;-89
2022/12/22 11:25:09;;;;;;;4.10;1.10;;;;;;;11.36;100.00;97447.09;4140102;28;20639;-92
2022/12/22 11:27:28;;;;;;;4.90;1.50;;;;;;;11.35;100.00;97448.03;4175013;28;20644;-90
2022/12/22 11:30:07;;;;;;;4.60;1.20;;;;;;;11.33;100.00;97440.34;4140004;28;21236;-90
2022/12/22 11:32:26;;;;;;;3.10;1.13;;;;;;;11.32;100.00;97445.69;4139663;28;20626;-90
2022/12/22 11:34:45;;;;;;;6.77;1.40;;;;;;;11.29;100.00;97453.78;4184628;28;20678;-90
2022/12/22 11:37:22;;;;;;;3.20;1.17;;;;;;;11.25;100.00;97448.94;4152160;28;21315;-91
2022/12/22 11:39:38;;;;;;;4.87;1.40;;;;;;;11.28;100.00;97458.16;4137618;28;20626;-91
2022/12/22 11:41:55;;;;;;;3.40;1.40;;;;;;;11.30;100.00;97458.03;4139627;28;20654;-90
2022/12/22 11:44:12;;;;;;;6.97;2.10;;;;;;;11.34;100.00;97462.06;4154383;28;20646;-90
2022/12/22 11:46:22;;;;;;;3.97;1.60;;;;;;;11.40;100.00;97464.19;4172443;28;20648;-90
2022/12/22 11:48:51;;;;;;;7.40;2.07;;;;;;;11.42;100.00;97457.03;4160330;28;20641;-89
2022/12/22 11:50:56;;;;;;;4.00;1.63;;;;;;;11.42;100.00;97457.84;4157637;28;20637;-90
2022/12/22 11:53:24;;;;;;;4.93;1.40;;;;;;;11.43;100.00;97462.13;4165584;28;20637;-89
2022/12/22 11:55:30;;;;;;;4.40;1.20;;;;;;;11.41;100.00;97455.38;4151564;28;21057;-89
2022/12/22 11:57:49;;;;;;;5.27;1.70;;;;;;;11.42;100.00;97462.25;4187607;28;21281;-89
2022/12/22 12:00:00;;;;;;;4.00;2.00;;;;;;;11.45;100.00;97456.78;4145166;28;20634;-90
2022/12/22 12:02:53;;;;;;;5.00;1.10;;;;;;;11.48;100.00;97465.22;4159292;28;20657;-90
2022/12/22 12:05:23;;;;;;;2.97;1.30;;;;;;;11.48;100.00;97469.63;4124190;28;20685;-90
2022/12/22 12:07:41;;;;;;;3.53;1.63;;;;;;;11.53;100.00;97467.47;4151256;28;20737;-90
2022/12/22 12:09:51;;;;;;;4.70;1.43;;;;;;;11.59;100.00;97456.50;4162647;28;21309;-90
2022/12/22 12:12:14;;;;;;;5.60;1.40;;;;;;;11.64;99.60;97480.50;4151033;28;20651;-90
2022/12/22 12:14:23;;;;;;;3.50;1.10;;;;;;;11.67;100.00;97469.78;4150160;28;20638;-90
2022/12/22 12:16:34;;;;;;;3.60;1.30;;;;;;;11.72;99.89;97463.22;4155213;28;20638;-90
2022/12/22 12:19:06;;;;;;;3.90;1.30;;;;;;;11.78;99.71;97476.59;4156344;28;20626;-91
2022/12/22 12:21:27;;;;;;;5.87;1.20;;;;;;;11.81;98.54;97473.72;4152049;28;20642;-90
2022/12/22 12:23:49;;;;;;;4.50;1.57;;;;;;;11.83;98.63;97471.81;4146091;28;20637;-90
2022/12/22 12:26:03;;;;;;;2.60;0.90;;;;;;;11.88;97.52;97490.56;4135111;28;20710;-90
2022/12/22 12:28:20;;;;;;;2.60;1.37;;;;;;;11.91;98.60;97482.47;4134798;28;20669;-89
2022/12/22 12:30:24;;;;;;;2.47;0.90;;;;;;;11.93;98.20;97487.56;4121203;28;20666;-90
2022/12/22 12:32:44;;;;;;;3.20;1.20;;;;;;;11.94;98.38;97489.22;4121037;28;20630;-90
2022/12/22 12:34:51;;;;;;;3.30;1.20;;;;;;;11.95;96.44;97481.25;4137667;28;20789;-90
2022/12/22 12:37:14;;;;;;;3.67;1.20;;;;;;;11.98;97.80;97494.06;4136256;28;20642;-91
2022/12/22 12:39:26;;;;;;;3.73;1.27;;;;;;;11.99;96.60;97487.88;4139070;28;20634;-91
2022/12/22 12:41:36;;;;;;;2.87;1.40;;;;;;;12.03;96.56;97506.75;4140721;28;20636;-90
2022/12/22 12:43:39;;;;;;;5.50;1.77;;;;;;;12.05;95.75;97503.03;4146152;28;21723;-90
2022/12/22 12:45:44;;;;;;;4.60;2.07;;;;;;;12.05;96.53;97502.22;4153625;28;20642;-92
2022/12/22 12:47:47;;;;;;;3.10;1.07;;;;;;;12.08;96.63;97505.41;4139565;28;20639;-93
2022/12/22 12:50:05;;;;;;;4.73;1.23;;;;;;;12.10;96.09;97513.94;4167978;28;20660;-90
2022/12/22 12:52:09;;;;;;;2.70;1.17;;;;;;;12.11;95.83;97502.53;4180825;28;21241;-91
2022/12/22 12:54:41;;;;;;;2.57;1.00;;;;;;;12.14;95.91;97517.97;4171422;28;20702;-89
2022/12/22 12:57:00;;;;;;;3.30;1.00;;;;;;;12.18;95.03;97514.13;4186964;28;20671;-90
2022/12/22 12:59:03;;;;;;;2.30;1.20;;;;;;;12.20;96.03;97519.25;4157615;28;20634;-89
2022/12/22 13:01:10;;;;;;;4.83;1.03;;;;;;;12.22;95.00;97518.13;4186198;28;20625;-90
2022/12/22 13:03:38;;;;;;;1.70;0.80;;;;;;;12.21;95.55;97519.13;4140325;28;21036;-89
2022/12/22 13:06:05;;;;;;;6.73;2.90;;;;;;;12.23;94.76;97529.44;4145737;28;21193;-89
2022/12/22 13:08:19;;;;;;;4.90;2.53;;;;;;;12.25;95.66;97525.72;4136444;28;20632;-89
2022/12/22 13:10:24;;;;;;;4.37;2.10;;;;;;;12.27;94.30;97542.94;4136945;28;20632;-92
2022/12/22 13:12:34;;;;;;;2.60;1.50;;;;;;;12.28;94.63;97536.78;4189119;28;20628;-91
2022/12/22 13:14:55;;;;;;;2.20;1.30;;;;;;;12.31;95.08;97551.34;4155778;28;20634;-90
2022/12/22 13:17:33;;;;;;;3.00;1.47;;;;;;;12.34;94.04;97540.63;4140891;28;20641;-90
2022/12/22 13:19:37;;;;;;;3.00;1.30;;;;;;;12.36;95.37;97549.22;4138521;28;21214;-90
2022/12/22 13:21:44;;;;;;;3.63;1.10;;;;;;;12.40;94.60;97553.19;4154239;28;20627;-90
2022/12/22 13:24:02;;;;;;;5.03;1.43;;;;;;;12.41;95.39;97562.72;4158523;28;20648;-90
2022/12/22 13:26:27;;;;;;;4.00;1.50;;;;;;;12.45;94.24;97561.50;4153928;28;21312;-90
2022/12/22 13:28:31;;;;;;;3.40;2.00;;;;;;;12.47;94.60;97562.19;4153498;28;20691;-91
2022/12/22 13:30:34;;;;;;;4.93;1.77;;;;;;;12.47;94.10;97556.97;4168440;28;20720;-89
2022/12/22 13:32:40;;;;;;;3.67;1.50;;;;;;;12.47;94.63;97567.44;4149072;28;20630;-90
2022/12/22 13:34:46;;;;;;;3.60;1.27;;;;;;;12.44;94.71;97563.28;4174359;28;21223;-90